sensor_id;sensor_type;location;lat;lon;timestamp;temperature;humidity
44215;DHT22;29884;47.450;19.124;2023-04-25T00:02:21;12.10;99.90
44215;DHT22;29884;47.450;19.124;2023-04-25T00:04:47;12.10;99.90
44215;DHT22;29884;47.450;19.124;2023-04-25T00:07:15;12.10;99.90
44215;DHT22;29884;47.450;19.124;2023-04-25T00:09:41;12.20;99.90
44215;DHT22;29884;47.450;19.124;2023-04-25T00:12:07;12.10;99.90
44215;DHT22;29884;47.450;19.124;2023-04-25T00:14:33;12.10;99.90
44215;DHT22;29884;47.450;19.124;2023-04-25T00:17:00;12.10;99.90
44215;DHT22;29884;47.450;19.124;2023-04-25T00:19:26;12.10;99.90
44215;DHT22;29884;47.450;19.124;2023-04-25T00:21:54;12.10;99.90
44215;DHT22;29884;47.450;19.124;2023-04-25T00:24:20;12.10;99.90
44215;DHT22;29884;47.450;19.124;2023-04-25T00:26:46;12.10;99.90
44215;DHT22;29884;47.450;19.124;2023-04-25T00:29:12;12.10;99.90
44215;DHT22;29884;47.450;19.124;2023-04-25T00:31:38;12.10;99.90
44215;DHT22;29884;47.450;19.124;2023-04-25T00:34:04;12.10;99.90
44215;DHT22;29884;47.450;19.124;2023-04-25T00:36:29;12.10;99.90
44215;DHT22;29884;47.450;19.124;2023-04-25T00:38:56;12.10;99.90
44215;DHT22;29884;47.450;19.124;2023-04-25T00:41:25;12.10;99.90
44215;DHT22;29884;47.450;19.124;2023-04-25T00:46:28;12.10;99.90
44215;DHT22;29884;47.450;19.124;2023-04-25T00:48:54;12.10;99.90
44215;DHT22;29884;47.450;19.124;2023-04-25T00:51:21;12.10;99.90
44215;DHT22;29884;47.450;19.124;2023-04-25T00:53:48;12.10;99.90
44215;DHT22;29884;47.450;19.124;2023-04-25T00:56:15;12.10;99.90
44215;DHT22;29884;47.450;19.124;2023-04-25T00:58:41;12.10;99.90
44215;DHT22;29884;47.450;19.124;2023-04-25T01:01:09;12.10;99.90
44215;DHT22;29884;47.450;19.124;2023-04-25T01:03:38;12.10;99.90
44215;DHT22;29884;47.450;19.124;2023-04-25T01:06:08;12.10;99.90
44215;DHT22;29884;47.450;19.124;2023-04-25T01:08:35;12.10;99.90
44215;DHT22;29884;47.450;19.124;2023-04-25T01:11:01;12.10;99.90
44215;DHT22;29884;47.450;19.124;2023-04-25T01:13:27;12.10;99.90
44215;DHT22;29884;47.450;19.124;2023-04-25T01:15:53;12.10;99.90
44215;DHT22;29884;47.450;19.124;2023-04-25T01:18:19;12.10;99.90
44215;DHT22;29884;47.450;19.124;2023-04-25T01:20:46;12.10;99.90
44215;DHT22;29884;47.450;19.124;2023-04-25T01:23:14;12.10;99.90
44215;DHT22;29884;47.450;19.124;2023-04-25T01:25:40;12.10;99.90
44215;DHT22;29884;47.450;19.124;2023-04-25T01:28:06;12.10;99.90
44215;DHT22;29884;47.450;19.124;2023-04-25T01:30:32;12.10;99.90
44215;DHT22;29884;47.450;19.124;2023-04-25T01:32:59;12.10;99.90
44215;DHT22;29884;47.450;19.124;2023-04-25T01:35:27;12.10;99.90
44215;DHT22;29884;47.450;19.124;2023-04-25T01:37:54;12.00;99.90
44215;DHT22;29884;47.450;19.124;2023-04-25T01:40:22;12.10;99.90
44215;DHT22;29884;47.450;19.124;2023-04-25T01:42:50;12.10;99.90
44215;DHT22;29884;47.450;19.124;2023-04-25T01:45:17;12.00;99.90
44215;DHT22;29884;47.450;19.124;2023-04-25T01:47:44;12.00;99.90
44215;DHT22;29884;47.450;19.124;2023-04-25T01:50:14;12.00;99.90
44215;DHT22;29884;47.450;19.124;2023-04-25T01:52:40;12.00;99.90
44215;DHT22;29884;47.450;19.124;2023-04-25T01:55:06;12.00;99.90
44215;DHT22;29884;47.450;19.124;2023-04-25T01:57:32;12.00;99.90
44215;DHT22;29884;47.450;19.124;2023-04-25T02:00:00;12.00;99.90
44215;DHT22;29884;47.450;19.124;2023-04-25T02:02:26;11.90;99.90
44215;DHT22;29884;47.450;19.124;2023-04-25T02:04:52;11.90;99.90
44215;DHT22;29884;47.450;19.124;2023-04-25T02:07:20;11.80;99.90
44215;DHT22;29884;47.450;19.124;2023-04-25T02:09:45;11.80;99.90
44215;DHT22;29884;47.450;19.124;2023-04-25T02:12:11;11.80;99.90
44215;DHT22;29884;47.450;19.124;2023-04-25T02:14:37;11.80;99.90
44215;DHT22;29884;47.450;19.124;2023-04-25T02:17:03;11.80;99.90
44215;DHT22;29884;47.450;19.124;2023-04-25T02:19:29;11.80;99.90
44215;DHT22;29884;47.450;19.124;2023-04-25T02:21:54;11.80;99.90
44215;DHT22;29884;47.450;19.124;2023-04-25T02:24:20;11.80;99.90
44215;DHT22;29884;47.450;19.124;2023-04-25T02:26:46;11.90;99.90
44215;DHT22;29884;47.450;19.124;2023-04-25T02:29:12;11.90;99.90
44215;DHT22;29884;47.450;19.124;2023-04-25T02:31:38;11.80;99.90
44215;DHT22;29884;47.450;19.124;2023-04-25T02:34:04;11.80;99.90
44215;DHT22;29884;47.450;19.124;2023-04-25T02:36:30;11.80;99.90
44215;DHT22;29884;47.450;19.124;2023-04-25T02:51:56;11.80;99.90
44215;DHT22;29884;47.450;19.124;2023-04-25T02:54:22;11.80;99.90
44215;DHT22;29884;47.450;19.124;2023-04-25T02:56:48;11.70;99.90
44215;DHT22;29884;47.450;19.124;2023-04-25T03:07:00;11.80;99.90
44215;DHT22;29884;47.450;19.124;2023-04-25T03:14:38;11.80;99.90
44215;DHT22;29884;47.450;19.124;2023-04-25T03:17:04;11.80;99.90
44215;DHT22;29884;47.450;19.124;2023-04-25T03:19:30;11.80;99.90
44215;DHT22;29884;47.450;19.124;2023-04-25T03:21:56;11.80;99.90
44215;DHT22;29884;47.450;19.124;2023-04-25T03:24:21;11.80;99.90
44215;DHT22;29884;47.450;19.124;2023-04-25T03:26:47;11.80;99.90
44215;DHT22;29884;47.450;19.124;2023-04-25T03:29:13;11.70;99.90
44215;DHT22;29884;47.450;19.124;2023-04-25T03:31:39;11.70;99.90
44215;DHT22;29884;47.450;19.124;2023-04-25T03:34:04;11.60;99.90
44215;DHT22;29884;47.450;19.124;2023-04-25T03:36:30;11.60;99.90
44215;DHT22;29884;47.450;19.124;2023-04-25T03:38:56;11.60;99.90
44215;DHT22;29884;47.450;19.124;2023-04-25T03:41:22;11.60;99.90
44215;DHT22;29884;47.450;19.124;2023-04-25T03:43:47;11.50;99.90
44215;DHT22;29884;47.450;19.124;2023-04-25T03:46:13;11.50;99.90
44215;DHT22;29884;47.450;19.124;2023-04-25T03:48:39;11.50;99.90
44215;DHT22;29884;47.450;19.124;2023-04-25T03:51:05;11.40;99.90
44215;DHT22;29884;47.450;19.124;2023-04-25T03:53:32;11.40;99.90
44215;DHT22;29884;47.450;19.124;2023-04-25T03:55:59;11.40;99.90
44215;DHT22;29884;47.450;19.124;2023-04-25T04:03:38;11.40;99.90
44215;DHT22;29884;47.450;19.124;2023-04-25T04:06:05;11.30;99.90
44215;DHT22;29884;47.450;19.124;2023-04-25T04:10:59;11.30;99.90
44215;DHT22;29884;47.450;19.124;2023-04-25T04:13:26;11.30;99.90
44215;DHT22;29884;47.450;19.124;2023-04-25T04:15:53;11.30;99.90
44215;DHT22;29884;47.450;19.124;2023-04-25T04:18:19;11.30;99.90
44215;DHT22;29884;47.450;19.124;2023-04-25T04:20:44;11.30;99.90
44215;DHT22;29884;47.450;19.124;2023-04-25T04:23:10;11.30;99.90
44215;DHT22;29884;47.450;19.124;2023-04-25T04:25:36;11.30;99.90
44215;DHT22;29884;47.450;19.124;2023-04-25T04:28:03;11.30;99.90
44215;DHT22;29884;47.450;19.124;2023-04-25T04:30:28;11.20;99.90
44215;DHT22;29884;47.450;19.124;2023-04-25T04:32:55;11.20;99.90
44215;DHT22;29884;47.450;19.124;2023-04-25T04:35:21;11.10;99.90
44215;DHT22;29884;47.450;19.124;2023-04-25T04:37:47;11.10;99.90
44215;DHT22;29884;47.450;19.124;2023-04-25T04:40:14;11.00;99.90
44215;DHT22;29884;47.450;19.124;2023-04-25T04:42:41;10.90;99.90
44215;DHT22;29884;47.450;19.124;2023-04-25T04:45:08;10.90;99.90
44215;DHT22;29884;47.450;19.124;2023-04-25T04:47:33;10.90;99.90
44215;DHT22;29884;47.450;19.124;2023-04-25T04:50:03;10.90;99.90
44215;DHT22;29884;47.450;19.124;2023-04-25T04:52:29;11.00;99.90
44215;DHT22;29884;47.450;19.124;2023-04-25T04:54:56;11.00;99.90
44215;DHT22;29884;47.450;19.124;2023-04-25T05:17:17;10.80;99.90
44215;DHT22;29884;47.450;19.124;2023-04-25T05:22:25;10.60;99.90
44215;DHT22;29884;47.450;19.124;2023-04-25T05:24:51;10.60;99.90
44215;DHT22;29884;47.450;19.124;2023-04-25T05:27:18;10.60;99.90
44215;DHT22;29884;47.450;19.124;2023-04-25T05:29:44;10.50;99.90
44215;DHT22;29884;47.450;19.124;2023-04-25T05:45:07;10.20;99.90
44215;DHT22;29884;47.450;19.124;2023-04-25T05:47:33;10.10;99.90
44215;DHT22;29884;47.450;19.124;2023-04-25T05:49:59;10.00;99.90
44215;DHT22;29884;47.450;19.124;2023-04-25T05:52:25;9.90;99.90
44215;DHT22;29884;47.450;19.124;2023-04-25T05:54:52;9.90;99.90
44215;DHT22;29884;47.450;19.124;2023-04-25T05:57:25;9.80;99.90
44215;DHT22;29884;47.450;19.124;2023-04-25T05:59:52;9.90;99.90
44215;DHT22;29884;47.450;19.124;2023-04-25T06:02:21;9.80;99.90
44215;DHT22;29884;47.450;19.124;2023-04-25T06:04:50;9.80;99.90
44215;DHT22;29884;47.450;19.124;2023-04-25T06:07:17;9.80;99.90
44215;DHT22;29884;47.450;19.124;2023-04-25T06:09:44;9.80;99.90
44215;DHT22;29884;47.450;19.124;2023-04-25T06:12:10;9.80;99.90
44215;DHT22;29884;47.450;19.124;2023-04-25T06:14:37;9.80;99.90
44215;DHT22;29884;47.450;19.124;2023-04-25T06:17:04;9.80;99.90
44215;DHT22;29884;47.450;19.124;2023-04-25T06:19:37;9.90;99.90
44215;DHT22;29884;47.450;19.124;2023-04-25T06:22:07;9.80;99.90
44215;DHT22;29884;47.450;19.124;2023-04-25T06:45:26;10.30;99.90
44215;DHT22;29884;47.450;19.124;2023-04-25T06:50:25;10.50;99.90
44215;DHT22;29884;47.450;19.124;2023-04-25T06:52:51;10.50;99.90
44215;DHT22;29884;47.450;19.124;2023-04-25T06:55:17;10.50;99.90
44215;DHT22;29884;47.450;19.124;2023-04-25T06:57:43;10.60;99.90
44215;DHT22;29884;47.450;19.124;2023-04-25T07:00:09;10.70;99.90
44215;DHT22;29884;47.450;19.124;2023-04-25T07:02:35;10.70;99.90
44215;DHT22;29884;47.450;19.124;2023-04-25T07:05:02;10.90;99.90
44215;DHT22;29884;47.450;19.124;2023-04-25T07:07:29;10.90;99.90
44215;DHT22;29884;47.450;19.124;2023-04-25T07:09:56;11.00;99.90
44215;DHT22;29884;47.450;19.124;2023-04-25T07:12:22;11.00;99.90
44215;DHT22;29884;47.450;19.124;2023-04-25T07:14:47;11.10;99.90
44215;DHT22;29884;47.450;19.124;2023-04-25T07:17:13;11.00;99.90
44215;DHT22;29884;47.450;19.124;2023-04-25T07:19:39;11.10;99.90
44215;DHT22;29884;47.450;19.124;2023-04-25T07:22:06;11.10;99.90
44215;DHT22;29884;47.450;19.124;2023-04-25T07:24:32;11.10;99.90
44215;DHT22;29884;47.450;19.124;2023-04-25T07:26:58;11.20;99.90
44215;DHT22;29884;47.450;19.124;2023-04-25T07:29:23;11.20;99.90
44215;DHT22;29884;47.450;19.124;2023-04-25T07:31:50;11.20;99.90
44215;DHT22;29884;47.450;19.124;2023-04-25T07:34:15;11.30;99.90
44215;DHT22;29884;47.450;19.124;2023-04-25T07:36:41;11.40;99.90
44215;DHT22;29884;47.450;19.124;2023-04-25T07:39:08;11.40;99.90
44215;DHT22;29884;47.450;19.124;2023-04-25T07:41:36;11.40;99.90
44215;DHT22;29884;47.450;19.124;2023-04-25T07:44:02;11.50;99.90
44215;DHT22;29884;47.450;19.124;2023-04-25T07:51:39;11.70;99.90
44215;DHT22;29884;47.450;19.124;2023-04-25T07:54:16;11.80;99.90
44215;DHT22;29884;47.450;19.124;2023-04-25T07:56:43;12.00;99.90
44215;DHT22;29884;47.450;19.124;2023-04-25T07:59:09;12.30;99.90
44215;DHT22;29884;47.450;19.124;2023-04-25T08:01:35;12.40;99.90
44215;DHT22;29884;47.450;19.124;2023-04-25T08:04:01;12.30;99.90
44215;DHT22;29884;47.450;19.124;2023-04-25T08:06:27;12.40;99.90
44215;DHT22;29884;47.450;19.124;2023-04-25T08:08:52;12.40;99.90
44215;DHT22;29884;47.450;19.124;2023-04-25T08:11:18;12.60;99.90
44215;DHT22;29884;47.450;19.124;2023-04-25T08:13:44;12.70;99.90
44215;DHT22;29884;47.450;19.124;2023-04-25T08:16:09;12.70;99.90
44215;DHT22;29884;47.450;19.124;2023-04-25T08:18:35;12.90;99.90
44215;DHT22;29884;47.450;19.124;2023-04-25T08:21:01;13.00;99.90
44215;DHT22;29884;47.450;19.124;2023-04-25T08:23:26;13.10;99.90
44215;DHT22;29884;47.450;19.124;2023-04-25T08:25:53;13.30;99.90
44215;DHT22;29884;47.450;19.124;2023-04-25T08:28:19;13.30;99.90
44215;DHT22;29884;47.450;19.124;2023-04-25T08:30:44;13.20;99.90
44215;DHT22;29884;47.450;19.124;2023-04-25T08:33:10;13.20;99.90
44215;DHT22;29884;47.450;19.124;2023-04-25T08:35:36;13.20;99.90
44215;DHT22;29884;47.450;19.124;2023-04-25T08:38:02;13.20;99.90
44215;DHT22;29884;47.450;19.124;2023-04-25T08:40:28;13.20;99.90
44215;DHT22;29884;47.450;19.124;2023-04-25T08:42:57;13.30;99.90
44215;DHT22;29884;47.450;19.124;2023-04-25T08:45:24;13.30;99.90
44215;DHT22;29884;47.450;19.124;2023-04-25T08:47:51;13.50;99.90
44215;DHT22;29884;47.450;19.124;2023-04-25T08:50:18;13.70;99.90
44215;DHT22;29884;47.450;19.124;2023-04-25T08:52:48;13.60;99.90
44215;DHT22;29884;47.450;19.124;2023-04-25T08:55:15;13.60;99.90
44215;DHT22;29884;47.450;19.124;2023-04-25T08:57:43;13.60;99.90
44215;DHT22;29884;47.450;19.124;2023-04-25T09:00:10;13.70;99.90
44215;DHT22;29884;47.450;19.124;2023-04-25T09:02:38;13.70;99.90
44215;DHT22;29884;47.450;19.124;2023-04-25T09:05:05;13.60;99.90
44215;DHT22;29884;47.450;19.124;2023-04-25T09:07:32;13.60;99.90
44215;DHT22;29884;47.450;19.124;2023-04-25T09:09:58;13.80;99.90
44215;DHT22;29884;47.450;19.124;2023-04-25T09:12:27;13.80;99.90
44215;DHT22;29884;47.450;19.124;2023-04-25T09:15:12;14.10;99.90
44215;DHT22;29884;47.450;19.124;2023-04-25T09:17:41;14.30;99.90
44215;DHT22;29884;47.450;19.124;2023-04-25T09:20:09;14.50;99.90
44215;DHT22;29884;47.450;19.124;2023-04-25T09:22:36;14.50;99.90
44215;DHT22;29884;47.450;19.124;2023-04-25T09:25:07;14.80;99.90
44215;DHT22;29884;47.450;19.124;2023-04-25T09:27:52;14.70;99.90
44215;DHT22;29884;47.450;19.124;2023-04-25T09:32:57;14.30;99.90
44215;DHT22;29884;47.450;19.124;2023-04-25T09:35:24;14.50;99.90
44215;DHT22;29884;47.450;19.124;2023-04-25T09:37:54;14.70;99.90
44215;DHT22;29884;47.450;19.124;2023-04-25T09:42:55;14.60;99.90
44215;DHT22;29884;47.450;19.124;2023-04-25T09:45:21;14.80;99.90
44215;DHT22;29884;47.450;19.124;2023-04-25T09:50:23;14.70;99.90
44215;DHT22;29884;47.450;19.124;2023-04-25T09:55:25;15.00;99.90
44215;DHT22;29884;47.450;19.124;2023-04-25T09:57:52;14.70;99.90
44215;DHT22;29884;47.450;19.124;2023-04-25T10:00:20;14.90;99.90
44215;DHT22;29884;47.450;19.124;2023-04-25T10:02:47;15.00;99.90
44215;DHT22;29884;47.450;19.124;2023-04-25T10:05:14;15.00;99.90
44215;DHT22;29884;47.450;19.124;2023-04-25T10:07:40;15.10;99.90
44215;DHT22;29884;47.450;19.124;2023-04-25T10:10:07;15.40;99.90
44215;DHT22;29884;47.450;19.124;2023-04-25T10:12:33;15.50;99.90
44215;DHT22;29884;47.450;19.124;2023-04-25T10:14:59;15.40;99.90
44215;DHT22;29884;47.450;19.124;2023-04-25T10:17:29;15.30;99.90
44215;DHT22;29884;47.450;19.124;2023-04-25T10:19:55;15.20;99.90
44215;DHT22;29884;47.450;19.124;2023-04-25T10:22:39;15.00;99.90
44215;DHT22;29884;47.450;19.124;2023-04-25T10:25:07;14.70;99.90
44215;DHT22;29884;47.450;19.124;2023-04-25T10:27:34;14.60;99.90
44215;DHT22;29884;47.450;19.124;2023-04-25T10:30:11;14.50;99.90
44215;DHT22;29884;47.450;19.124;2023-04-25T10:32:41;14.30;99.90
44215;DHT22;29884;47.450;19.124;2023-04-25T10:35:19;14.40;99.90
44215;DHT22;29884;47.450;19.124;2023-04-25T10:40:27;14.30;99.90
44215;DHT22;29884;47.450;19.124;2023-04-25T10:42:53;14.40;99.90
44215;DHT22;29884;47.450;19.124;2023-04-25T10:45:20;14.50;99.90
44215;DHT22;29884;47.450;19.124;2023-04-25T10:47:46;14.60;99.90
44215;DHT22;29884;47.450;19.124;2023-04-25T10:50:14;14.80;99.90
44215;DHT22;29884;47.450;19.124;2023-04-25T10:52:41;14.90;99.90
44215;DHT22;29884;47.450;19.124;2023-04-25T10:55:08;15.20;99.90
44215;DHT22;29884;47.450;19.124;2023-04-25T10:57:42;15.40;99.90
44215;DHT22;29884;47.450;19.124;2023-04-25T11:02:42;15.40;99.90
44215;DHT22;29884;47.450;19.124;2023-04-25T11:05:09;15.30;99.90
44215;DHT22;29884;47.450;19.124;2023-04-25T11:07:52;15.00;99.90
44215;DHT22;29884;47.450;19.124;2023-04-25T11:10:20;15.00;99.90
44215;DHT22;29884;47.450;19.124;2023-04-25T11:12:50;15.00;99.90
44215;DHT22;29884;47.450;19.124;2023-04-25T11:15:16;15.10;99.90
44215;DHT22;29884;47.450;19.124;2023-04-25T11:17:42;15.30;99.90
44215;DHT22;29884;47.450;19.124;2023-04-25T11:20:10;15.40;99.90
44215;DHT22;29884;47.450;19.124;2023-04-25T11:22:38;15.70;99.90
44215;DHT22;29884;47.450;19.124;2023-04-25T11:25:07;15.90;99.90
44215;DHT22;29884;47.450;19.124;2023-04-25T11:27:33;15.70;99.90
44215;DHT22;29884;47.450;19.124;2023-04-25T11:30:13;15.80;99.90
44215;DHT22;29884;47.450;19.124;2023-04-25T11:32:40;15.90;99.90
44215;DHT22;29884;47.450;19.124;2023-04-25T11:35:07;16.30;99.90
44215;DHT22;29884;47.450;19.124;2023-04-25T11:37:33;16.00;98.00
44215;DHT22;29884;47.450;19.124;2023-04-25T11:40:00;15.70;98.30
44215;DHT22;29884;47.450;19.124;2023-04-25T11:42:26;15.70;98.60
44215;DHT22;29884;47.450;19.124;2023-04-25T11:44:52;15.90;99.00
44215;DHT22;29884;47.450;19.124;2023-04-25T11:47:17;15.70;98.20
44215;DHT22;29884;47.450;19.124;2023-04-25T11:49:43;15.30;98.80
44215;DHT22;29884;47.450;19.124;2023-04-25T11:52:09;15.00;99.30
44215;DHT22;29884;47.450;19.124;2023-04-25T11:54:36;15.00;99.90
44215;DHT22;29884;47.450;19.124;2023-04-25T11:57:03;15.00;99.90
44215;DHT22;29884;47.450;19.124;2023-04-25T11:59:29;15.20;99.90
44215;DHT22;29884;47.450;19.124;2023-04-25T12:01:55;15.20;99.90
44215;DHT22;29884;47.450;19.124;2023-04-25T12:04:24;15.20;99.90
44215;DHT22;29884;47.450;19.124;2023-04-25T12:06:53;15.20;99.60
44215;DHT22;29884;47.450;19.124;2023-04-25T12:09:21;15.40;99.70
44215;DHT22;29884;47.450;19.124;2023-04-25T12:11:54;15.40;99.70
44215;DHT22;29884;47.450;19.124;2023-04-25T12:14:31;15.60;99.00
44215;DHT22;29884;47.450;19.124;2023-04-25T12:16:59;15.30;97.30
44215;DHT22;29884;47.450;19.124;2023-04-25T12:19:26;15.30;97.10
44215;DHT22;29884;47.450;19.124;2023-04-25T12:21:52;15.40;98.00
44215;DHT22;29884;47.450;19.124;2023-04-25T12:24:22;15.50;99.90
44215;DHT22;29884;47.450;19.124;2023-04-25T12:27:04;15.70;98.90
44215;DHT22;29884;47.450;19.124;2023-04-25T12:29:32;16.10;97.60
44215;DHT22;29884;47.450;19.124;2023-04-25T12:31:58;16.50;96.30
44215;DHT22;29884;47.450;19.124;2023-04-25T12:34:24;16.40;95.20
44215;DHT22;29884;47.450;19.124;2023-04-25T12:36:51;16.60;95.10
44215;DHT22;29884;47.450;19.124;2023-04-25T12:39:18;16.90;94.20
44215;DHT22;29884;47.450;19.124;2023-04-25T12:41:45;16.70;93.20
44215;DHT22;29884;47.450;19.124;2023-04-25T12:44:11;16.70;92.50
44215;DHT22;29884;47.450;19.124;2023-04-25T12:46:37;16.60;92.10
44215;DHT22;29884;47.450;19.124;2023-04-25T12:49:04;16.80;91.30
44215;DHT22;29884;47.450;19.124;2023-04-25T12:51:30;16.80;91.10
44215;DHT22;29884;47.450;19.124;2023-04-25T12:54:01;16.60;90.40
44215;DHT22;29884;47.450;19.124;2023-04-25T12:56:27;16.70;89.20
44215;DHT22;29884;47.450;19.124;2023-04-25T12:58:53;16.90;87.30
44215;DHT22;29884;47.450;19.124;2023-04-25T13:01:19;16.80;85.00
44215;DHT22;29884;47.450;19.124;2023-04-25T13:03:46;17.10;86.70
44215;DHT22;29884;47.450;19.124;2023-04-25T13:06:12;17.20;81.50
44215;DHT22;29884;47.450;19.124;2023-04-25T13:08:38;17.20;81.30
44215;DHT22;29884;47.450;19.124;2023-04-25T13:11:05;17.30;81.30
44215;DHT22;29884;47.450;19.124;2023-04-25T13:13:31;17.00;79.80
44215;DHT22;29884;47.450;19.124;2023-04-25T13:15:58;17.00;80.80
44215;DHT22;29884;47.450;19.124;2023-04-25T13:18:24;16.90;79.50
44215;DHT22;29884;47.450;19.124;2023-04-25T13:20:55;17.00;78.50
44215;DHT22;29884;47.450;19.124;2023-04-25T13:23:22;16.80;78.10
44215;DHT22;29884;47.450;19.124;2023-04-25T13:25:48;16.80;77.60
44215;DHT22;29884;47.450;19.124;2023-04-25T13:28:13;16.70;78.60
44215;DHT22;29884;47.450;19.124;2023-04-25T13:30:40;16.90;77.20
44215;DHT22;29884;47.450;19.124;2023-04-25T13:33:06;16.80;76.40
44215;DHT22;29884;47.450;19.124;2023-04-25T13:35:33;16.90;76.70
44215;DHT22;29884;47.450;19.124;2023-04-25T13:37:59;17.00;76.90
44215;DHT22;29884;47.450;19.124;2023-04-25T13:40:25;16.90;75.40
44215;DHT22;29884;47.450;19.124;2023-04-25T13:42:52;16.80;73.90
44215;DHT22;29884;47.450;19.124;2023-04-25T13:45:19;16.70;74.00
44215;DHT22;29884;47.450;19.124;2023-04-25T13:47:45;16.80;72.10
44215;DHT22;29884;47.450;19.124;2023-04-25T13:50:11;16.90;70.00
44215;DHT22;29884;47.450;19.124;2023-04-25T13:52:37;17.00;71.00
44215;DHT22;29884;47.450;19.124;2023-04-25T13:55:03;17.10;68.90
44215;DHT22;29884;47.450;19.124;2023-04-25T13:57:30;16.90;70.20
44215;DHT22;29884;47.450;19.124;2023-04-25T13:59:56;17.00;67.80
44215;DHT22;29884;47.450;19.124;2023-04-25T14:02:22;17.10;68.50
44215;DHT22;29884;47.450;19.124;2023-04-25T14:04:48;17.10;67.60
44215;DHT22;29884;47.450;19.124;2023-04-25T14:07:14;17.10;69.20
44215;DHT22;29884;47.450;19.124;2023-04-25T14:09:43;17.30;68.90
44215;DHT22;29884;47.450;19.124;2023-04-25T14:12:09;17.30;63.60
44215;DHT22;29884;47.450;19.124;2023-04-25T14:14:35;16.90;63.90
44215;DHT22;29884;47.450;19.124;2023-04-25T14:17:01;16.70;66.00
44215;DHT22;29884;47.450;19.124;2023-04-25T14:19:26;16.60;65.90
44215;DHT22;29884;47.450;19.124;2023-04-25T14:21:54;16.50;65.10
44215;DHT22;29884;47.450;19.124;2023-04-25T14:24:19;16.70;65.30
44215;DHT22;29884;47.450;19.124;2023-04-25T14:26:45;16.80;63.50
44215;DHT22;29884;47.450;19.124;2023-04-25T14:29:11;16.80;64.20
44215;DHT22;29884;47.450;19.124;2023-04-25T14:31:38;16.70;64.50
44215;DHT22;29884;47.450;19.124;2023-04-25T14:34:05;16.50;65.20
44215;DHT22;29884;47.450;19.124;2023-04-25T14:36:31;16.50;66.00
44215;DHT22;29884;47.450;19.124;2023-04-25T14:38:58;16.40;66.30
44215;DHT22;29884;47.450;19.124;2023-04-25T14:41:24;16.20;66.10
44215;DHT22;29884;47.450;19.124;2023-04-25T14:43:50;16.20;66.30
44215;DHT22;29884;47.450;19.124;2023-04-25T14:46:16;16.00;66.90
44215;DHT22;29884;47.450;19.124;2023-04-25T14:48:42;15.90;68.20
44215;DHT22;29884;47.450;19.124;2023-04-25T14:51:08;15.90;68.60
44215;DHT22;29884;47.450;19.124;2023-04-25T14:53:34;16.20;68.20
44215;DHT22;29884;47.450;19.124;2023-04-25T14:55:59;16.10;68.40
44215;DHT22;29884;47.450;19.124;2023-04-25T14:58:25;16.20;68.60
44215;DHT22;29884;47.450;19.124;2023-04-25T15:00:51;16.30;68.10
44215;DHT22;29884;47.450;19.124;2023-04-25T15:03:17;16.50;68.20
44215;DHT22;29884;47.450;19.124;2023-04-25T15:05:43;16.70;67.70
44215;DHT22;29884;47.450;19.124;2023-04-25T15:08:09;16.60;67.50
44215;DHT22;29884;47.450;19.124;2023-04-25T15:10:38;16.50;68.20
44215;DHT22;29884;47.450;19.124;2023-04-25T15:13:04;16.70;68.20
44215;DHT22;29884;47.450;19.124;2023-04-25T15:15:30;16.80;67.50
44215;DHT22;29884;47.450;19.124;2023-04-25T15:17:56;16.80;67.10
44215;DHT22;29884;47.450;19.124;2023-04-25T15:20:23;16.70;65.80
44215;DHT22;29884;47.450;19.124;2023-04-25T15:22:50;16.50;66.70
44215;DHT22;29884;47.450;19.124;2023-04-25T15:25:16;16.60;65.90
44215;DHT22;29884;47.450;19.124;2023-04-25T15:27:45;16.80;67.40
44215;DHT22;29884;47.450;19.124;2023-04-25T15:30:14;16.60;66.30
44215;DHT22;29884;47.450;19.124;2023-04-25T15:32:44;16.50;66.90
44215;DHT22;29884;47.450;19.124;2023-04-25T15:35:10;16.10;66.90
44215;DHT22;29884;47.450;19.124;2023-04-25T15:37:36;16.00;66.60
44215;DHT22;29884;47.450;19.124;2023-04-25T15:40:13;15.80;66.60
44215;DHT22;29884;47.450;19.124;2023-04-25T15:42:41;15.90;67.40
44215;DHT22;29884;47.450;19.124;2023-04-25T15:45:09;15.90;67.20
44215;DHT22;29884;47.450;19.124;2023-04-25T15:47:37;15.90;68.90
44215;DHT22;29884;47.450;19.124;2023-04-25T15:50:04;15.90;68.00
44215;DHT22;29884;47.450;19.124;2023-04-25T15:52:31;15.80;69.60
44215;DHT22;29884;47.450;19.124;2023-04-25T15:54:57;15.70;70.50
44215;DHT22;29884;47.450;19.124;2023-04-25T15:57:23;15.60;71.80
44215;DHT22;29884;47.450;19.124;2023-04-25T15:59:49;15.40;71.00
44215;DHT22;29884;47.450;19.124;2023-04-25T16:02:16;15.30;71.90
44215;DHT22;29884;47.450;19.124;2023-04-25T16:04:42;15.10;71.80
44215;DHT22;29884;47.450;19.124;2023-04-25T16:07:08;15.10;73.20
44215;DHT22;29884;47.450;19.124;2023-04-25T16:09:37;14.80;77.10
44215;DHT22;29884;47.450;19.124;2023-04-25T16:12:04;14.70;80.50
44215;DHT22;29884;47.450;19.124;2023-04-25T16:19:42;14.40;88.70
44215;DHT22;29884;47.450;19.124;2023-04-25T16:24:45;14.20;92.20
44215;DHT22;29884;47.450;19.124;2023-04-25T16:29:46;14.10;92.30
44215;DHT22;29884;47.450;19.124;2023-04-25T16:32:14;14.10;93.00
44215;DHT22;29884;47.450;19.124;2023-04-25T16:34:39;14.10;93.70
44215;DHT22;29884;47.450;19.124;2023-04-25T16:37:05;14.10;93.80
44215;DHT22;29884;47.450;19.124;2023-04-25T16:39:31;14.00;94.10
44215;DHT22;29884;47.450;19.124;2023-04-25T16:44:32;14.00;95.20
44215;DHT22;29884;47.450;19.124;2023-04-25T16:49:34;14.00;94.80
44215;DHT22;29884;47.450;19.124;2023-04-25T16:52:04;14.00;95.90
44215;DHT22;29884;47.450;19.124;2023-04-25T16:57:06;13.80;95.10
44215;DHT22;29884;47.450;19.124;2023-04-25T16:59:36;13.80;95.90
44215;DHT22;29884;47.450;19.124;2023-04-25T17:07:12;13.70;96.60
44215;DHT22;29884;47.450;19.124;2023-04-25T17:09:38;13.70;97.90
44215;DHT22;29884;47.450;19.124;2023-04-25T17:12:04;13.60;97.70
44215;DHT22;29884;47.450;19.124;2023-04-25T17:14:30;13.70;98.10
44215;DHT22;29884;47.450;19.124;2023-04-25T17:16:57;13.60;98.80
44215;DHT22;29884;47.450;19.124;2023-04-25T17:19:23;13.60;99.00
44215;DHT22;29884;47.450;19.124;2023-04-25T17:21:49;13.50;99.30
44215;DHT22;29884;47.450;19.124;2023-04-25T17:24:16;13.40;99.90
44215;DHT22;29884;47.450;19.124;2023-04-25T17:26:42;13.40;99.90
44215;DHT22;29884;47.450;19.124;2023-04-25T17:29:08;13.30;99.90
44215;DHT22;29884;47.450;19.124;2023-04-25T17:31:34;13.30;99.90
44215;DHT22;29884;47.450;19.124;2023-04-25T17:34:01;13.30;99.90
44215;DHT22;29884;47.450;19.124;2023-04-25T17:36:27;13.20;99.90